sensor_id;sensor_type;location;lat;lon;timestamp;P1;durP1;ratioP1;P2;durP2;ratioP2
4210;SDS011;2119;48.828;12.396;2024-01-06T00:02:32;22.53;;;15.43;;
4210;SDS011;2119;48.828;12.396;2024-01-06T00:07:32;17.20;;;13.00;;
4210;SDS011;2119;48.828;12.396;2024-01-06T00:12:33;18.10;;;13.40;;
4210;SDS011;2119;48.828;12.396;2024-01-06T00:17:33;16.23;;;13.10;;
4210;SDS011;2119;48.828;12.396;2024-01-06T00:22:33;17.40;;;12.60;;
4210;SDS011;2119;48.828;12.396;2024-01-06T00:27:33;18.35;;;14.13;;
4210;SDS011;2119;48.828;12.396;2024-01-06T00:32:33;22.00;;;15.53;;
4210;SDS011;2119;48.828;12.396;2024-01-06T00:37:33;18.70;;;14.40;;
4210;SDS011;2119;48.828;12.396;2024-01-06T00:42:34;22.67;;;15.27;;
4210;SDS011;2119;48.828;12.396;2024-01-06T00:47:34;21.87;;;15.77;;
4210;SDS011;2119;48.828;12.396;2024-01-06T00:52:34;24.48;;;15.40;;
4210;SDS011;2119;48.828;12.396;2024-01-06T00:57:34;22.87;;;15.07;;
4210;SDS011;2119;48.828;12.396;2024-01-06T01:02:34;21.33;;;15.98;;
4210;SDS011;2119;48.828;12.396;2024-01-06T01:07:35;19.17;;;14.77;;
4210;SDS011;2119;48.828;12.396;2024-01-06T01:12:35;23.73;;;15.98;;
4210;SDS011;2119;48.828;12.396;2024-01-06T01:17:35;17.60;;;14.50;;
4210;SDS011;2119;48.828;12.396;2024-01-06T01:22:37;23.10;;;16.07;;
4210;SDS011;2119;48.828;12.396;2024-01-06T01:27:37;21.43;;;15.70;;
4210;SDS011;2119;48.828;12.396;2024-01-06T01:32:37;22.60;;;16.50;;
4210;SDS011;2119;48.828;12.396;2024-01-06T01:37:37;21.43;;;16.30;;
4210;SDS011;2119;48.828;12.396;2024-01-06T01:42:37;24.77;;;16.90;;
4210;SDS011;2119;48.828;12.396;2024-01-06T01:47:37;26.33;;;16.53;;
4210;SDS011;2119;48.828;12.396;2024-01-06T01:52:39;23.53;;;16.50;;
4210;SDS011;2119;48.828;12.396;2024-01-06T01:57:40;28.03;;;19.03;;
4210;SDS011;2119;48.828;12.396;2024-01-06T02:02:40;21.67;;;16.20;;
4210;SDS011;2119;48.828;12.396;2024-01-06T02:07:41;23.30;;;16.50;;
4210;SDS011;2119;48.828;12.396;2024-01-06T02:12:41;22.07;;;15.47;;
4210;SDS011;2119;48.828;12.396;2024-01-06T02:17:41;21.20;;;16.30;;
4210;SDS011;2119;48.828;12.396;2024-01-06T02:22:41;23.85;;;16.52;;
4210;SDS011;2119;48.828;12.396;2024-01-06T02:27:41;31.27;;;17.17;;
4210;SDS011;2119;48.828;12.396;2024-01-06T02:32:41;23.23;;;16.33;;
4210;SDS011;2119;48.828;12.396;2024-01-06T02:37:42;21.87;;;15.90;;
4210;SDS011;2119;48.828;12.396;2024-01-06T02:42:42;23.20;;;16.35;;
4210;SDS011;2119;48.828;12.396;2024-01-06T02:47:42;22.50;;;15.63;;
4210;SDS011;2119;48.828;12.396;2024-01-06T02:52:43;22.60;;;16.53;;
4210;SDS011;2119;48.828;12.396;2024-01-06T02:57:44;19.03;;;15.83;;
4210;SDS011;2119;48.828;12.396;2024-01-06T03:02:44;23.90;;;16.30;;
4210;SDS011;2119;48.828;12.396;2024-01-06T03:07:44;21.40;;;15.75;;
4210;SDS011;2119;48.828;12.396;2024-01-06T03:12:44;21.80;;;15.97;;
4210;SDS011;2119;48.828;12.396;2024-01-06T03:17:44;25.17;;;16.30;;
4210;SDS011;2119;48.828;12.396;2024-01-06T03:22:44;24.60;;;16.90;;
4210;SDS011;2119;48.828;12.396;2024-01-06T03:27:45;24.40;;;16.80;;
4210;SDS011;2119;48.828;12.396;2024-01-06T03:32:45;25.55;;;17.42;;
4210;SDS011;2119;48.828;12.396;2024-01-06T03:37:45;26.97;;;17.90;;
4210;SDS011;2119;48.828;12.396;2024-01-06T03:42:45;27.48;;;17.08;;
4210;SDS011;2119;48.828;12.396;2024-01-06T03:47:45;43.40;;;25.23;;
4210;SDS011;2119;48.828;12.396;2024-01-06T03:52:46;26.07;;;18.00;;
4210;SDS011;2119;48.828;12.396;2024-01-06T03:57:46;28.17;;;19.00;;
4210;SDS011;2119;48.828;12.396;2024-01-06T04:02:46;25.95;;;18.90;;
4210;SDS011;2119;48.828;12.396;2024-01-06T04:07:46;28.03;;;18.83;;
4210;SDS011;2119;48.828;12.396;2024-01-06T04:12:46;27.77;;;18.65;;
4210;SDS011;2119;48.828;12.396;2024-01-06T04:17:47;27.20;;;18.83;;
4210;SDS011;2119;48.828;12.396;2024-01-06T04:22:48;24.37;;;16.73;;
4210;SDS011;2119;48.828;12.396;2024-01-06T04:27:48;24.20;;;16.60;;
4210;SDS011;2119;48.828;12.396;2024-01-06T04:32:49;23.30;;;16.10;;
4210;SDS011;2119;48.828;12.396;2024-01-06T04:37:49;22.20;;;16.40;;
4210;SDS011;2119;48.828;12.396;2024-01-06T04:42:50;25.47;;;16.97;;
4210;SDS011;2119;48.828;12.396;2024-01-06T04:47:50;25.80;;;17.57;;
4210;SDS011;2119;48.828;12.396;2024-01-06T04:52:50;23.83;;;16.17;;
4210;SDS011;2119;48.828;12.396;2024-01-06T04:57:50;24.70;;;16.57;;
4210;SDS011;2119;48.828;12.396;2024-01-06T05:02:51;26.77;;;16.97;;
4210;SDS011;2119;48.828;12.396;2024-01-06T05:07:51;26.33;;;17.40;;
4210;SDS011;2119;48.828;12.396;2024-01-06T05:12:51;28.10;;;17.70;;
4210;SDS011;2119;48.828;12.396;2024-01-06T05:17:51;29.02;;;16.85;;
4210;SDS011;2119;48.828;12.396;2024-01-06T05:22:51;30.60;;;18.43;;
4210;SDS011;2119;48.828;12.396;2024-01-06T05:27:52;32.93;;;18.50;;
4210;SDS011;2119;48.828;12.396;2024-01-06T05:32:52;25.65;;;16.17;;
4210;SDS011;2119;48.828;12.396;2024-01-06T05:37:52;26.00;;;16.53;;
4210;SDS011;2119;48.828;12.396;2024-01-06T05:42:52;29.30;;;17.70;;
4210;SDS011;2119;48.828;12.396;2024-01-06T05:47:55;26.87;;;17.17;;
4210;SDS011;2119;48.828;12.396;2024-01-06T05:52:55;24.27;;;16.80;;
4210;SDS011;2119;48.828;12.396;2024-01-06T05:57:55;26.05;;;17.02;;
4210;SDS011;2119;48.828;12.396;2024-01-06T06:02:56;27.47;;;17.57;;
4210;SDS011;2119;48.828;12.396;2024-01-06T06:07:56;25.80;;;16.10;;
4210;SDS011;2119;48.828;12.396;2024-01-06T06:12:56;28.97;;;18.17;;
4210;SDS011;2119;48.828;12.396;2024-01-06T06:17:56;24.07;;;16.73;;
4210;SDS011;2119;48.828;12.396;2024-01-06T06:22:59;24.60;;;17.03;;
4210;SDS011;2119;48.828;12.396;2024-01-06T06:27:59;25.60;;;17.67;;
4210;SDS011;2119;48.828;12.396;2024-01-06T06:32:59;24.80;;;16.90;;
4210;SDS011;2119;48.828;12.396;2024-01-06T06:38:00;26.17;;;18.47;;
4210;SDS011;2119;48.828;12.396;2024-01-06T06:43:00;29.95;;;18.25;;
4210;SDS011;2119;48.828;12.396;2024-01-06T06:48:00;24.17;;;17.13;;
4210;SDS011;2119;48.828;12.396;2024-01-06T06:53:00;30.07;;;17.93;;
4210;SDS011;2119;48.828;12.396;2024-01-06T06:58:03;25.27;;;17.63;;
4210;SDS011;2119;48.828;12.396;2024-01-06T07:03:04;26.20;;;18.20;;
4210;SDS011;2119;48.828;12.396;2024-01-06T07:08:04;27.60;;;17.43;;
4210;SDS011;2119;48.828;12.396;2024-01-06T07:13:04;27.63;;;17.20;;
4210;SDS011;2119;48.828;12.396;2024-01-06T07:18:05;21.37;;;14.97;;
4210;SDS011;2119;48.828;12.396;2024-01-06T07:23:06;20.90;;;14.83;;
4210;SDS011;2119;48.828;12.396;2024-01-06T07:28:06;20.10;;;13.50;;
4210;SDS011;2119;48.828;12.396;2024-01-06T07:33:08;21.93;;;16.37;;
4210;SDS011;2119;48.828;12.396;2024-01-06T07:38:12;18.70;;;12.90;;
4210;SDS011;2119;48.828;12.396;2024-01-06T07:43:12;18.50;;;12.70;;
4210;SDS011;2119;48.828;12.396;2024-01-06T07:48:12;13.90;;;9.57;;
4210;SDS011;2119;48.828;12.396;2024-01-06T07:53:13;10.80;;;9.27;;
4210;SDS011;2119;48.828;12.396;2024-01-06T07:58:13;12.63;;;9.27;;
4210;SDS011;2119;48.828;12.396;2024-01-06T08:03:14;12.67;;;7.60;;
4210;SDS011;2119;48.828;12.396;2024-01-06T08:08:16;9.37;;;7.60;;
4210;SDS011;2119;48.828;12.396;2024-01-06T08:13:16;10.27;;;7.67;;
4210;SDS011;2119;48.828;12.396;2024-01-06T08:18:17;11.90;;;8.23;;
4210;SDS011;2119;48.828;12.396;2024-01-06T08:23:18;10.60;;;7.53;;
4210;SDS011;2119;48.828;12.396;2024-01-06T08:28:20;8.03;;;7.07;;
4210;SDS011;2119;48.828;12.396;2024-01-06T08:33:23;12.90;;;7.87;;
4210;SDS011;2119;48.828;12.396;2024-01-06T08:38:23;30.80;;;19.23;;
4210;SDS011;2119;48.828;12.396;2024-01-06T08:43:23;15.20;;;8.90;;
4210;SDS011;2119;48.828;12.396;2024-01-06T08:48:23;12.27;;;7.80;;
4210;SDS011;2119;48.828;12.396;2024-01-06T08:53:23;9.38;;;6.82;;
4210;SDS011;2119;48.828;12.396;2024-01-06T08:58:24;6.53;;;5.80;;
4210;SDS011;2119;48.828;12.396;2024-01-06T09:03:24;16.48;;;6.80;;
4210;SDS011;2119;48.828;12.396;2024-01-06T09:08:26;9.10;;;6.90;;
4210;SDS011;2119;48.828;12.396;2024-01-06T09:13:26;10.10;;;6.30;;
4210;SDS011;2119;48.828;12.396;2024-01-06T09:18:26;11.05;;;7.20;;
4210;SDS011;2119;48.828;12.396;2024-01-06T09:23:27;11.43;;;7.37;;
4210;SDS011;2119;48.828;12.396;2024-01-06T09:28:27;7.73;;;6.87;;
4210;SDS011;2119;48.828;12.396;2024-01-06T09:33:27;8.60;;;7.00;;
4210;SDS011;2119;48.828;12.396;2024-01-06T09:38:28;9.67;;;6.50;;
4210;SDS011;2119;48.828;12.396;2024-01-06T09:43:28;14.03;;;7.77;;
4210;SDS011;2119;48.828;12.396;2024-01-06T09:48:30;10.57;;;7.10;;
4210;SDS011;2119;48.828;12.396;2024-01-06T09:53:33;11.57;;;7.80;;
4210;SDS011;2119;48.828;12.396;2024-01-06T09:58:34;12.03;;;7.97;;
4210;SDS011;2119;48.828;12.396;2024-01-06T10:03:36;9.87;;;6.90;;
4210;SDS011;2119;48.828;12.396;2024-01-06T10:08:37;9.70;;;7.50;;
4210;SDS011;2119;48.828;12.396;2024-01-06T10:13:40;11.80;;;7.80;;
4210;SDS011;2119;48.828;12.396;2024-01-06T10:18:40;8.90;;;7.40;;
4210;SDS011;2119;48.828;12.396;2024-01-06T10:23:40;8.52;;;7.45;;
4210;SDS011;2119;48.828;12.396;2024-01-06T10:28:42;8.53;;;6.37;;
4210;SDS011;2119;48.828;12.396;2024-01-06T10:33:43;9.00;;;7.80;;
4210;SDS011;2119;48.828;12.396;2024-01-06T10:38:46;8.60;;;7.45;;
4210;SDS011;2119;48.828;12.396;2024-01-06T10:43:46;7.57;;;6.83;;
4210;SDS011;2119;48.828;12.396;2024-01-06T10:48:47;11.47;;;7.93;;
4210;SDS011;2119;48.828;12.396;2024-01-06T10:53:49;13.07;;;7.80;;
4210;SDS011;2119;48.828;12.396;2024-01-06T10:58:50;11.10;;;7.73;;
4210;SDS011;2119;48.828;12.396;2024-01-06T11:03:52;11.77;;;8.10;;
4210;SDS011;2119;48.828;12.396;2024-01-06T11:08:53;11.67;;;8.07;;
4210;SDS011;2119;48.828;12.396;2024-01-06T11:24:37;8.57;;;6.80;;
4210;SDS011;2119;48.828;12.396;2024-01-06T11:29:38;8.50;;;6.90;;
4210;SDS011;2119;48.828;12.396;2024-01-06T11:34:42;9.67;;;6.97;;
4210;SDS011;2119;48.828;12.396;2024-01-06T11:39:44;7.78;;;6.75;;
4210;SDS011;2119;48.828;12.396;2024-01-06T11:44:44;8.87;;;6.87;;
4210;SDS011;2119;48.828;12.396;2024-01-06T11:49:49;9.80;;;7.30;;
4210;SDS011;2119;48.828;12.396;2024-01-06T11:54:54;10.90;;;7.63;;
4210;SDS011;2119;48.828;12.396;2024-01-06T11:59:54;11.33;;;7.93;;
4210;SDS011;2119;48.828;12.396;2024-01-06T12:04:54;11.07;;;7.47;;
4210;SDS011;2119;48.828;12.396;2024-01-06T12:10:01;7.70;;;6.13;;
4210;SDS011;2119;48.828;12.396;2024-01-06T12:15:01;14.53;;;8.30;;
4210;SDS011;2119;48.828;12.396;2024-01-06T12:20:02;7.73;;;6.90;;
4210;SDS011;2119;48.828;12.396;2024-01-06T12:25:02;13.77;;;8.07;;
4210;SDS011;2119;48.828;12.396;2024-01-06T12:30:04;13.60;;;7.70;;
4210;SDS011;2119;48.828;12.396;2024-01-06T12:35:05;9.30;;;7.20;;
4210;SDS011;2119;48.828;12.396;2024-01-06T12:40:05;8.80;;;6.30;;
4210;SDS011;2119;48.828;12.396;2024-01-06T12:45:08;10.63;;;7.10;;
4210;SDS011;2119;48.828;12.396;2024-01-06T12:50:10;8.33;;;7.00;;
4210;SDS011;2119;48.828;12.396;2024-01-06T12:55:10;10.75;;;7.07;;
4210;SDS011;2119;48.828;12.396;2024-01-06T13:00:10;8.90;;;7.10;;
4210;SDS011;2119;48.828;12.396;2024-01-06T13:05:10;11.97;;;8.23;;
4210;SDS011;2119;48.828;12.396;2024-01-06T13:10:12;11.47;;;8.40;;
4210;SDS011;2119;48.828;12.396;2024-01-06T13:15:12;15.40;;;9.80;;
4210;SDS011;2119;48.828;12.396;2024-01-06T13:20:12;14.52;;;9.15;;
4210;SDS011;2119;48.828;12.396;2024-01-06T13:25:12;15.60;;;8.27;;
4210;SDS011;2119;48.828;12.396;2024-01-06T13:30:13;11.97;;;9.17;;
4210;SDS011;2119;48.828;12.396;2024-01-06T13:35:13;9.90;;;7.77;;
4210;SDS011;2119;48.828;12.396;2024-01-06T13:40:14;11.57;;;8.87;;
4210;SDS011;2119;48.828;12.396;2024-01-06T13:45:14;10.27;;;6.67;;
4210;SDS011;2119;48.828;12.396;2024-01-06T13:50:18;9.10;;;6.50;;
4210;SDS011;2119;48.828;12.396;2024-01-06T13:55:18;9.50;;;7.97;;
4210;SDS011;2119;48.828;12.396;2024-01-06T14:00:18;11.43;;;6.60;;
4210;SDS011;2119;48.828;12.396;2024-01-06T14:05:20;8.33;;;5.57;;
4210;SDS011;2119;48.828;12.396;2024-01-06T14:10:20;9.43;;;5.75;;
4210;SDS011;2119;48.828;12.396;2024-01-06T14:15:20;16.30;;;9.88;;
4210;SDS011;2119;48.828;12.396;2024-01-06T14:20:20;10.73;;;6.87;;
4210;SDS011;2119;48.828;12.396;2024-01-06T14:25:21;9.20;;;6.47;;
4210;SDS011;2119;48.828;12.396;2024-01-06T14:30:21;10.68;;;6.88;;
4210;SDS011;2119;48.828;12.396;2024-01-06T14:35:21;13.23;;;7.20;;
4210;SDS011;2119;48.828;12.396;2024-01-06T14:40:21;7.07;;;5.75;;
4210;SDS011;2119;48.828;12.396;2024-01-06T14:45:22;9.23;;;7.50;;
4210;SDS011;2119;48.828;12.396;2024-01-06T14:50:22;8.60;;;6.23;;
4210;SDS011;2119;48.828;12.396;2024-01-06T14:55:22;10.70;;;6.10;;
4210;SDS011;2119;48.828;12.396;2024-01-06T15:00:22;6.55;;;5.55;;
4210;SDS011;2119;48.828;12.396;2024-01-06T15:05:23;8.63;;;6.38;;
4210;SDS011;2119;48.828;12.396;2024-01-06T15:10:23;9.57;;;7.35;;
4210;SDS011;2119;48.828;12.396;2024-01-06T15:15:23;8.40;;;6.13;;
4210;SDS011;2119;48.828;12.396;2024-01-06T15:20:23;9.10;;;7.10;;
4210;SDS011;2119;48.828;12.396;2024-01-06T15:25:24;10.83;;;6.73;;
4210;SDS011;2119;48.828;12.396;2024-01-06T15:30:24;7.85;;;6.65;;
4210;SDS011;2119;48.828;12.396;2024-01-06T15:35:24;12.47;;;6.27;;
4210;SDS011;2119;48.828;12.396;2024-01-06T15:40:25;13.43;;;6.53;;
4210;SDS011;2119;48.828;12.396;2024-01-06T15:45:25;9.63;;;6.80;;
4210;SDS011;2119;48.828;12.396;2024-01-06T15:50:25;14.90;;;8.47;;
4210;SDS011;2119;48.828;12.396;2024-01-06T15:55:25;11.77;;;6.30;;
4210;SDS011;2119;48.828;12.396;2024-01-06T16:00:26;9.60;;;6.87;;
4210;SDS011;2119;48.828;12.396;2024-01-06T16:05:27;7.07;;;6.38;;
4210;SDS011;2119;48.828;12.396;2024-01-06T16:10:30;8.20;;;6.53;;
4210;SDS011;2119;48.828;12.396;2024-01-06T16:15:30;8.93;;;7.47;;
4210;SDS011;2119;48.828;12.396;2024-01-06T16:20:30;14.05;;;8.57;;
4210;SDS011;2119;48.828;12.396;2024-01-06T16:25:31;11.37;;;7.97;;
4210;SDS011;2119;48.828;12.396;2024-01-06T16:30:45;14.60;;;9.50;;
4210;SDS011;2119;48.828;12.396;2024-01-06T16:35:46;13.47;;;8.70;;
4210;SDS011;2119;48.828;12.396;2024-01-06T16:40:46;10.80;;;7.60;;
4210;SDS011;2119;48.828;12.396;2024-01-06T16:45:47;12.60;;;6.80;;
4210;SDS011;2119;48.828;12.396;2024-01-06T16:50:47;9.43;;;7.80;;
4210;SDS011;2119;48.828;12.396;2024-01-06T16:55:48;16.70;;;9.47;;
4210;SDS011;2119;48.828;12.396;2024-01-06T17:00:48;12.30;;;7.93;;
4210;SDS011;2119;48.828;12.396;2024-01-06T17:05:49;10.60;;;7.00;;
4210;SDS011;2119;48.828;12.396;2024-01-06T17:10:49;11.13;;;7.00;;
4210;SDS011;2119;48.828;12.396;2024-01-06T17:15:49;13.20;;;9.03;;
4210;SDS011;2119;48.828;12.396;2024-01-06T17:20:49;13.40;;;8.55;;
4210;SDS011;2119;48.828;12.396;2024-01-06T17:25:49;11.07;;;7.33;;
4210;SDS011;2119;48.828;12.396;2024-01-06T17:30:49;6.90;;;6.07;;
4210;SDS011;2119;48.828;12.396;2024-01-06T17:35:50;10.13;;;7.63;;
4210;SDS011;2119;48.828;12.396;2024-01-06T17:40:50;9.38;;;8.05;;
4210;SDS011;2119;48.828;12.396;2024-01-06T17:45:50;11.40;;;7.00;;
4210;SDS011;2119;48.828;12.396;2024-01-06T17:50:50;10.90;;;7.40;;
4210;SDS011;2119;48.828;12.396;2024-01-06T17:55:50;9.00;;;7.80;;
4210;SDS011;2119;48.828;12.396;2024-01-06T18:00:51;10.30;;;6.65;;
4210;SDS011;2119;48.828;12.396;2024-01-06T18:05:51;11.10;;;6.73;;
4210;SDS011;2119;48.828;12.396;2024-01-06T18:10:51;10.07;;;7.63;;
4210;SDS011;2119;48.828;12.396;2024-01-06T18:15:52;10.87;;;7.00;;
4210;SDS011;2119;48.828;12.396;2024-01-06T18:20:52;11.50;;;6.03;;
4210;SDS011;2119;48.828;12.396;2024-01-06T18:25:52;13.10;;;8.20;;
4210;SDS011;2119;48.828;12.396;2024-01-06T18:30:53;12.40;;;7.40;;
4210;SDS011;2119;48.828;12.396;2024-01-06T18:35:53;8.00;;;6.93;;
4210;SDS011;2119;48.828;12.396;2024-01-06T18:40:53;9.82;;;6.95;;
4210;SDS011;2119;48.828;12.396;2024-01-06T18:45:58;9.60;;;7.33;;
4210;SDS011;2119;48.828;12.396;2024-01-06T18:50:58;11.40;;;7.30;;
4210;SDS011;2119;48.828;12.396;2024-01-06T18:55:59;9.70;;;7.17;;
4210;SDS011;2119;48.828;12.396;2024-01-06T19:00:59;14.27;;;8.23;;
4210;SDS011;2119;48.828;12.396;2024-01-06T19:05:59;14.63;;;8.27;;
4210;SDS011;2119;48.828;12.396;2024-01-06T19:10:59;11.53;;;7.27;;
4210;SDS011;2119;48.828;12.396;2024-01-06T19:15:59;14.57;;;7.93;;
4210;SDS011;2119;48.828;12.396;2024-01-06T19:21:00;9.18;;;6.07;;
4210;SDS011;2119;48.828;12.396;2024-01-06T19:26:01;7.78;;;6.40;;
4210;SDS011;2119;48.828;12.396;2024-01-06T19:31:01;14.33;;;7.80;;
4210;SDS011;2119;48.828;12.396;2024-01-06T19:36:01;7.35;;;6.20;;
4210;SDS011;2119;48.828;12.396;2024-01-06T19:41:02;10.83;;;7.00;;
4210;SDS011;2119;48.828;12.396;2024-01-06T19:46:02;8.65;;;6.47;;
4210;SDS011;2119;48.828;12.396;2024-01-06T19:51:06;10.83;;;7.50;;
4210;SDS011;2119;48.828;12.396;2024-01-06T19:56:06;12.43;;;8.00;;
4210;SDS011;2119;48.828;12.396;2024-01-06T20:01:12;11.90;;;7.93;;
4210;SDS011;2119;48.828;12.396;2024-01-06T20:06:13;13.80;;;8.10;;
4210;SDS011;2119;48.828;12.396;2024-01-06T20:11:13;10.03;;;7.03;;
4210;SDS011;2119;48.828;12.396;2024-01-06T20:16:13;15.40;;;9.73;;
4210;SDS011;2119;48.828;12.396;2024-01-06T20:21:13;11.70;;;8.20;;
4210;SDS011;2119;48.828;12.396;2024-01-06T20:26:15;15.38;;;8.25;;
4210;SDS011;2119;48.828;12.396;2024-01-06T20:31:15;13.83;;;7.50;;
4210;SDS011;2119;48.828;12.396;2024-01-06T20:36:15;8.55;;;7.03;;
4210;SDS011;2119;48.828;12.396;2024-01-06T20:41:15;10.80;;;7.13;;
4210;SDS011;2119;48.828;12.396;2024-01-06T20:46:16;13.18;;;8.40;;
4210;SDS011;2119;48.828;12.396;2024-01-06T20:51:17;13.73;;;8.70;;
4210;SDS011;2119;48.828;12.396;2024-01-06T20:56:20;11.73;;;7.57;;
4210;SDS011;2119;48.828;12.396;2024-01-06T21:01:21;10.77;;;7.60;;
4210;SDS011;2119;48.828;12.396;2024-01-06T21:06:22;12.40;;;8.47;;
4210;SDS011;2119;48.828;12.396;2024-01-06T21:11:22;12.50;;;8.60;;
4210;SDS011;2119;48.828;12.396;2024-01-06T21:16:22;10.32;;;8.00;;
4210;SDS011;2119;48.828;12.396;2024-01-06T21:21:23;12.73;;;7.67;;
4210;SDS011;2119;48.828;12.396;2024-01-06T21:26:23;9.50;;;7.60;;
4210;SDS011;2119;48.828;12.396;2024-01-06T21:31:24;10.50;;;7.50;;
4210;SDS011;2119;48.828;12.396;2024-01-06T21:36:26;12.27;;;8.80;;
4210;SDS011;2119;48.828;12.396;2024-01-06T21:41:28;11.17;;;8.23;;
4210;SDS011;2119;48.828;12.396;2024-01-06T21:46:28;13.25;;;9.13;;
4210;SDS011;2119;48.828;12.396;2024-01-06T21:51:28;14.70;;;9.20;;
4210;SDS011;2119;48.828;12.396;2024-01-06T21:56:29;11.32;;;8.90;;
4210;SDS011;2119;48.828;12.396;2024-01-06T22:01:29;15.77;;;8.80;;
4210;SDS011;2119;48.828;12.396;2024-01-06T22:06:29;13.67;;;9.50;;
4210;SDS011;2119;48.828;12.396;2024-01-06T22:11:30;14.07;;;9.33;;
4210;SDS011;2119;48.828;12.396;2024-01-06T22:16:30;11.95;;;8.35;;
4210;SDS011;2119;48.828;12.396;2024-01-06T22:21:30;16.00;;;10.70;;
4210;SDS011;2119;48.828;12.396;2024-01-06T22:26:31;17.53;;;10.40;;
4210;SDS011;2119;48.828;12.396;2024-01-06T22:31:31;13.15;;;9.32;;
4210;SDS011;2119;48.828;12.396;2024-01-06T22:36:31;13.00;;;10.43;;
4210;SDS011;2119;48.828;12.396;2024-01-06T22:41:32;16.67;;;9.60;;
4210;SDS011;2119;48.828;12.396;2024-01-06T22:46:32;14.07;;;10.10;;
4210;SDS011;2119;48.828;12.396;2024-01-06T22:51:32;17.00;;;10.20;;
4210;SDS011;2119;48.828;12.396;2024-01-06T22:56:32;16.88;;;10.80;;
4210;SDS011;2119;48.828;12.396;2024-01-06T23:01:33;25.13;;;12.57;;
4210;SDS011;2119;48.828;12.396;2024-01-06T23:06:33;14.97;;;10.80;;
4210;SDS011;2119;48.828;12.396;2024-01-06T23:11:33;17.10;;;12.40;;
4210;SDS011;2119;48.828;12.396;2024-01-06T23:16:34;18.98;;;12.05;;
4210;SDS011;2119;48.828;12.396;2024-01-06T23:21:35;19.23;;;11.73;;
4210;SDS011;2119;48.828;12.396;2024-01-06T23:26:36;18.67;;;12.07;;
4210;SDS011;2119;48.828;12.396;2024-01-06T23:31:36;16.25;;;11.75;;
4210;SDS011;2119;48.828;12.396;2024-01-06T23:36:36;21.30;;;11.93;;
4210;SDS011;2119;48.828;12.396;2024-01-06T23:41:36;20.30;;;13.45;;
4210;SDS011;2119;48.828;12.396;2024-01-06T23:46:37;21.00;;;13.50;;
4210;SDS011;2119;48.828;12.396;2024-01-06T23:51:37;18.63;;;11.73;;
4210;SDS011;2119;48.828;12.396;2024-01-06T23:56:37;20.73;;;12.37;;
